createdAt,value
2022-11-20T00:00:54.897Z,1.22
2022-11-20T00:03:21.712Z,1.22
2022-11-20T00:05:48.419Z,1.25
2022-11-20T00:08:15.214Z,1.22
2022-11-20T00:10:41.966Z,1.24
2022-11-20T00:13:09.078Z,1.23
2022-11-20T00:15:35.777Z,1.24
2022-11-20T00:18:02.524Z,1.25
2022-11-20T00:20:29.262Z,1.24
2022-11-20T00:22:55.968Z,1.19
2022-11-20T00:25:22.658Z,1.23
2022-11-20T00:27:49.336Z,1.22
2022-11-20T00:30:16.033Z,1.23
2022-11-20T00:32:42.722Z,1.22
2022-11-20T00:35:09.554Z,1.22
2022-11-20T00:37:36.199Z,1.13
2022-11-20T00:40:02.877Z,1.10
2022-11-20T00:42:29.753Z,1.14
2022-11-20T00:44:56.483Z,1.17
2022-11-20T00:47:23.206Z,1.21
2022-11-20T00:49:49.876Z,1.22
2022-11-20T00:52:16.526Z,1.26
2022-11-20T00:54:43.170Z,1.26
2022-11-20T00:57:09.867Z,1.18
2022-11-20T00:59:36.526Z,1.15
2022-11-20T01:02:03.229Z,1.17
2022-11-20T01:04:29.960Z,1.13
2022-11-20T01:06:56.685Z,1.09
2022-11-20T01:09:23.648Z,1.03
2022-11-20T01:11:50.586Z,1.06
2022-11-20T01:14:19.885Z,1.03
2022-11-20T01:16:49.345Z,0.99
2022-11-20T01:19:22.319Z,0.94
2022-11-20T01:21:51.496Z,0.99
2022-11-20T01:24:20.159Z,0.95
2022-11-20T01:26:49.941Z,0.94
2022-11-20T01:29:20.053Z,1.04
2022-11-20T01:31:47.135Z,1.04
2022-11-20T01:34:15.920Z,1.10
2022-11-20T01:36:44.024Z,1.17
2022-11-20T01:39:15.140Z,1.20
2022-11-20T01:42:04.510Z,1.27
2022-11-20T01:44:55.932Z,1.32
2022-11-20T01:47:40.883Z,1.40
2022-11-20T01:50:14.579Z,1.43
2022-11-20T01:52:45.297Z,1.49
2022-11-20T01:55:20.050Z,1.51
2022-11-20T01:57:48.107Z,1.57
2022-11-20T02:00:16.577Z,1.61
2022-11-20T02:02:46.488Z,1.60
2022-11-20T02:05:33.906Z,1.64
2022-11-20T02:08:01.160Z,1.60
2022-11-20T02:10:28.279Z,1.66
2022-11-20T02:13:14.101Z,1.63
2022-11-20T02:15:41.411Z,1.61
2022-11-20T02:18:08.987Z,1.66
2022-11-20T02:20:35.749Z,1.60
2022-11-20T02:23:10.518Z,1.59
2022-11-20T02:25:37.986Z,1.62
2022-11-20T02:28:05.332Z,1.65
2022-11-20T02:30:32.051Z,1.66
2022-11-20T02:32:59.497Z,1.67
2022-11-20T02:35:26.122Z,1.66
2022-11-20T02:37:55.711Z,1.61
2022-11-20T02:40:22.896Z,1.48
2022-11-20T02:42:53.188Z,1.49
2022-11-20T02:45:19.979Z,1.51
2022-11-20T02:47:47.000Z,1.55
2022-11-20T02:50:13.850Z,1.55
2022-11-20T02:52:40.540Z,1.56
2022-11-20T02:55:07.746Z,1.48
2022-11-20T02:57:34.495Z,1.52
2022-11-20T03:00:01.215Z,1.55
2022-11-20T03:02:31.291Z,1.54
2022-11-20T03:04:58.104Z,1.53
2022-11-20T03:07:25.102Z,1.53
2022-11-20T03:09:51.814Z,1.59
2022-11-20T03:12:18.469Z,1.62
2022-11-20T03:14:48.895Z,1.63
2022-11-20T03:17:18.404Z,1.61
2022-11-20T03:19:45.061Z,1.63
2022-11-20T03:22:11.770Z,1.62
2022-11-20T03:24:38.407Z,1.68
2022-11-20T03:27:05.229Z,1.70
2022-11-20T03:29:31.948Z,1.68
2022-11-20T03:31:58.616Z,1.70
2022-11-20T03:34:25.290Z,1.77
2022-11-20T03:36:51.998Z,1.82
2022-11-20T03:39:18.820Z,1.78
2022-11-20T03:41:45.829Z,1.81
2022-11-20T03:44:12.811Z,1.81
2022-11-20T03:46:39.708Z,1.79
2022-11-20T03:49:06.475Z,1.82
2022-11-20T03:51:35.005Z,1.87
2022-11-20T03:54:06.968Z,1.91
2022-11-20T03:56:36.386Z,1.92
2022-11-20T03:59:03.792Z,1.97
2022-11-20T04:01:32.976Z,1.99
2022-11-20T04:04:00.046Z,2.02
2022-11-20T04:06:31.810Z,2.01
2022-11-20T04:08:59.662Z,1.94
2022-11-20T04:11:31.550Z,1.80
2022-11-20T04:14:12.622Z,1.66
2022-11-20T04:16:39.346Z,1.57
2022-11-20T04:19:07.854Z,1.43
2022-11-20T04:21:34.621Z,1.40
2022-11-20T04:24:01.467Z,1.43
2022-11-20T04:26:29.223Z,1.48
2022-11-20T04:28:56.674Z,1.51
2022-11-20T04:31:25.967Z,1.56
2022-11-20T04:33:52.800Z,1.58
2022-11-20T04:36:21.529Z,1.61
2022-11-20T04:38:56.571Z,1.65
2022-11-20T04:41:26.230Z,1.70
2022-11-20T04:44:02.786Z,1.73
2022-11-20T04:46:30.665Z,1.72
2022-11-20T04:48:57.415Z,1.79
2022-11-20T04:51:24.290Z,1.85
2022-11-20T04:53:50.948Z,1.90
2022-11-20T04:56:17.826Z,1.86
2022-11-20T04:58:44.470Z,1.98
2022-11-20T05:01:13.171Z,1.94
2022-11-20T05:03:42.544Z,1.90
2022-11-20T05:06:10.954Z,1.92
2022-11-20T05:08:37.782Z,1.93
2022-11-20T05:11:07.034Z,1.98
2022-11-20T05:13:33.759Z,2.00
2022-11-20T05:16:08.013Z,2.05
2022-11-20T05:18:35.953Z,2.10
2022-11-20T05:21:02.915Z,2.06
2022-11-20T05:23:31.663Z,2.14
2022-11-20T05:25:59.602Z,2.17
2022-11-20T05:28:28.525Z,2.18
2022-11-20T05:30:55.348Z,2.23
2022-11-20T05:33:22.552Z,2.23
2022-11-20T05:35:49.577Z,2.23
2022-11-20T05:38:16.506Z,2.22
2022-11-20T05:40:43.174Z,2.18
2022-11-20T05:43:09.802Z,2.22
2022-11-20T05:45:36.534Z,2.18
2022-11-20T05:48:03.364Z,2.10
2022-11-20T05:50:30.059Z,2.12
2022-11-20T05:53:00.454Z,2.09
2022-11-20T05:55:27.890Z,2.10
2022-11-20T05:57:55.867Z,2.10
2022-11-20T06:00:23.098Z,2.06
2022-11-20T06:02:50.013Z,2.06
2022-11-20T06:05:16.916Z,2.08
2022-11-20T06:07:43.807Z,2.06
2022-11-20T06:10:10.885Z,2.00
2022-11-20T06:12:37.553Z,2.03
2022-11-20T06:15:05.611Z,2.08
2022-11-20T06:17:32.290Z,2.12
2022-11-20T06:19:59.016Z,2.14
2022-11-20T06:22:25.619Z,2.20
2022-11-20T06:24:52.303Z,2.22
2022-11-20T06:27:18.996Z,2.29
2022-11-20T06:29:45.759Z,2.31
2022-11-20T06:32:12.525Z,2.36
2022-11-20T06:34:39.259Z,2.37
2022-11-20T06:37:05.950Z,2.33
2022-11-20T06:39:32.614Z,2.30
2022-11-20T06:41:59.534Z,2.36
2022-11-20T06:44:26.647Z,2.43
2022-11-20T06:46:53.361Z,2.35
2022-11-20T06:49:20.436Z,2.30
2022-11-20T06:51:47.363Z,2.37
2022-11-20T06:54:14.112Z,2.46
2022-11-20T06:56:40.810Z,2.51
2022-11-20T06:59:08.161Z,2.54
2022-11-20T07:01:35.922Z,2.54
2022-11-20T07:04:03.974Z,2.56
2022-11-20T07:06:30.878Z,2.63
2022-11-20T07:08:57.975Z,2.69
2022-11-20T07:11:25.827Z,2.73
2022-11-20T07:13:52.491Z,2.79
2022-11-20T07:16:19.526Z,2.82
2022-11-20T07:18:50.438Z,2.96
2022-11-20T07:21:17.781Z,3.02
2022-11-20T07:23:44.453Z,3.06
2022-11-20T07:26:11.875Z,3.10
2022-11-20T07:28:38.909Z,3.18
2022-11-20T07:31:07.694Z,3.24
2022-11-20T07:33:34.513Z,3.29
2022-11-20T07:36:01.246Z,3.35
2022-11-20T07:38:28.383Z,3.44
2022-11-20T07:40:56.697Z,3.42
2022-11-20T07:43:23.298Z,3.48
2022-11-20T07:45:49.995Z,3.55
2022-11-20T07:48:16.793Z,3.56
2022-11-20T07:50:43.506Z,3.63
2022-11-20T07:53:10.130Z,3.71
2022-11-20T07:55:37.119Z,3.80
2022-11-20T07:58:03.902Z,3.91
2022-11-20T08:00:30.719Z,3.95
2022-11-20T08:02:57.396Z,3.99
2022-11-20T08:05:24.312Z,4.10
2022-11-20T08:07:51.053Z,4.19
2022-11-20T08:10:18.052Z,4.13
2022-11-20T08:13:07.654Z,4.17
2022-11-20T08:15:35.026Z,4.25
2022-11-20T08:21:03.251Z,4.40
2022-11-20T08:23:29.944Z,4.47
2022-11-20T08:25:56.645Z,4.55
2022-11-20T08:28:23.286Z,4.64
2022-11-20T08:30:50.992Z,4.76
2022-11-20T08:33:18.620Z,4.85
2022-11-20T08:35:45.383Z,5.01
2022-11-20T08:38:12.253Z,5.13
2022-11-20T08:40:38.970Z,5.38
2022-11-20T08:43:05.591Z,5.58
2022-11-20T08:45:34.621Z,5.77
2022-11-20T08:48:03.172Z,5.86
2022-11-20T08:50:33.213Z,5.63
2022-11-20T08:53:06.576Z,5.49
2022-11-20T08:55:33.882Z,5.28
2022-11-20T08:58:05.194Z,5.20
2022-11-20T09:00:31.985Z,5.11
2022-11-20T09:02:59.594Z,5.05
2022-11-20T09:05:26.264Z,5.00
2022-11-20T09:07:52.918Z,5.07
2022-11-20T09:10:24.512Z,5.08
2022-11-20T09:12:52.845Z,5.18
2022-11-20T09:15:20.033Z,5.23
2022-11-20T09:18:01.770Z,5.10
2022-11-20T09:20:29.963Z,5.12
2022-11-20T09:22:57.777Z,5.15
2022-11-20T09:25:24.511Z,5.17
2022-11-20T09:27:58.519Z,5.24
2022-11-20T09:30:25.774Z,5.27
2022-11-20T09:32:53.594Z,5.44
2022-11-20T09:35:20.405Z,5.48
2022-11-20T09:37:47.095Z,5.60
2022-11-20T09:40:30.498Z,5.61
2022-11-20T09:43:21.105Z,5.83
2022-11-20T09:45:56.767Z,5.91
2022-11-20T09:48:32.969Z,5.97
2022-11-20T09:51:15.070Z,6.05
2022-11-20T09:54:08.204Z,6.12
2022-11-20T09:56:36.075Z,6.21
2022-11-20T09:59:05.597Z,6.28
2022-11-20T10:01:35.311Z,6.44
2022-11-20T10:04:03.281Z,6.43
2022-11-20T10:06:35.238Z,6.59
2022-11-20T10:09:08.438Z,6.92
2022-11-20T10:11:53.095Z,7.11
2022-11-20T10:14:28.069Z,7.34
2022-11-20T10:17:18.609Z,7.62
2022-11-20T10:20:00.826Z,7.85
2022-11-20T10:22:33.577Z,7.82
2022-11-20T10:25:05.852Z,7.83
2022-11-20T10:27:55.642Z,7.89
2022-11-20T10:30:25.845Z,7.96
2022-11-20T10:33:00.454Z,8.06
2022-11-20T10:35:39.885Z,8.54
2022-11-20T10:38:14.249Z,9.00
2022-11-20T10:40:44.447Z,9.65
2022-11-20T10:43:17.714Z,10.27
2022-11-20T10:45:50.603Z,10.62
2022-11-20T10:48:22.461Z,11.14
2022-11-20T10:50:58.527Z,11.59
2022-11-20T10:53:37.436Z,12.13
2022-11-20T10:56:13.247Z,12.66
2022-11-20T10:59:01.218Z,13.14
2022-11-20T11:01:28.204Z,12.90
2022-11-20T11:03:56.403Z,13.17
2022-11-20T11:06:44.158Z,12.73
2022-11-20T11:09:17.456Z,12.67
2022-11-20T11:11:44.210Z,12.60
2022-11-20T11:14:13.325Z,12.24
2022-11-20T11:16:58.085Z,11.57
2022-11-20T11:19:25.794Z,11.37
2022-11-20T11:21:58.447Z,11.21
2022-11-20T11:24:45.775Z,11.06
2022-11-20T11:27:17.171Z,10.87
2022-11-20T11:29:45.309Z,10.99
2022-11-20T11:32:22.730Z,11.45
2022-11-20T11:35:03.471Z,11.95
2022-11-20T11:37:38.798Z,12.15
2022-11-20T11:43:02.127Z,12.44
2022-11-20T11:45:29.088Z,12.37
2022-11-20T11:47:58.639Z,12.39
2022-11-20T11:50:30.559Z,12.09
2022-11-20T11:53:18.677Z,11.43
2022-11-20T11:55:49.722Z,10.89
2022-11-20T11:58:37.571Z,10.46
2022-11-20T12:01:21.979Z,10.24
2022-11-20T12:04:03.460Z,9.81
2022-11-20T12:06:32.505Z,9.56
2022-11-20T12:09:09.790Z,9.23
2022-11-20T12:11:42.511Z,9.00
2022-11-20T12:14:40.565Z,8.85
2022-11-20T12:17:09.827Z,8.79
2022-11-20T12:19:36.608Z,8.65
2022-11-20T12:22:08.229Z,8.59
2022-11-20T12:24:44.037Z,8.62
2022-11-20T12:27:23.893Z,8.66
2022-11-20T12:30:17.455Z,8.66
2022-11-20T12:33:02.446Z,8.65
2022-11-20T12:35:57.884Z,8.55
2022-11-20T12:39:05.786Z,8.55
2022-11-20T12:42:03.301Z,8.54
2022-11-20T12:45:06.927Z,8.37
2022-11-20T12:47:48.854Z,8.29
2022-11-20T12:50:30.631Z,7.84
2022-11-20T12:53:23.422Z,7.87
2022-11-20T12:55:58.298Z,7.76
2022-11-20T12:58:44.152Z,7.81
2022-11-20T13:01:44.529Z,8.02
2022-11-20T13:04:29.972Z,8.08
2022-11-20T13:06:57.751Z,8.26
2022-11-20T13:09:25.071Z,8.36
2022-11-20T13:12:07.193Z,8.53
2022-11-20T13:14:41.601Z,8.78
2022-11-20T13:17:15.907Z,8.74
2022-11-20T13:19:42.691Z,8.86
2022-11-20T13:22:10.100Z,8.60
2022-11-20T13:24:36.758Z,8.57
2022-11-20T13:27:09.336Z,8.50
2022-11-20T13:29:37.792Z,8.42
2022-11-20T13:32:15.158Z,8.33
2022-11-20T13:34:53.545Z,8.30
2022-11-20T13:37:35.871Z,8.22
2022-11-20T13:40:23.319Z,8.07
2022-11-20T13:43:03.626Z,7.96
2022-11-20T13:45:32.148Z,7.96
2022-11-20T13:48:05.263Z,7.87
2022-11-20T13:50:37.824Z,7.83
2022-11-20T13:53:35.394Z,7.80
2022-11-20T13:56:03.985Z,7.75
2022-11-20T13:58:32.987Z,7.64
2022-11-20T14:01:08.564Z,7.52
2022-11-20T14:04:04.565Z,7.38
2022-11-20T14:06:30.513Z,7.31
2022-11-20T14:08:57.763Z,7.24
2022-11-20T14:11:29.066Z,7.15
2022-11-20T14:14:00.210Z,7.10
2022-11-20T14:16:28.943Z,6.98
2022-11-20T14:18:56.322Z,6.85
2022-11-20T14:21:28.967Z,6.65
2022-11-20T14:24:07.038Z,6.51
2022-11-20T14:26:34.607Z,6.43
2022-11-20T14:29:01.396Z,6.37
2022-11-20T14:31:28.853Z,6.23
2022-11-20T14:33:56.142Z,6.18
2022-11-20T14:36:24.550Z,6.12
2022-11-20T14:38:52.412Z,6.03
2022-11-20T14:41:22.072Z,5.93
2022-11-20T14:43:57.422Z,5.84
2022-11-20T14:46:24.591Z,5.72
2022-11-20T14:48:53.630Z,5.56
2022-11-20T14:51:34.857Z,5.40
2022-11-20T14:54:19.462Z,5.26
2022-11-20T14:56:56.451Z,5.09
2022-11-20T14:59:27.741Z,4.97
2022-11-20T15:02:03.807Z,4.83
2022-11-20T15:04:30.535Z,4.73
2022-11-20T15:06:59.154Z,4.61
2022-11-20T15:09:25.961Z,4.54
2022-11-20T15:11:58.287Z,4.42
2022-11-20T15:14:26.386Z,4.34
2022-11-20T15:16:53.382Z,4.21
2022-11-20T15:19:25.263Z,4.15
2022-11-20T15:21:52.067Z,4.04
2022-11-20T15:24:19.308Z,3.97
2022-11-20T15:26:46.182Z,3.90
2022-11-20T15:29:14.460Z,3.78
2022-11-20T15:31:42.540Z,3.76
2022-11-20T15:34:12.332Z,3.72
2022-11-20T15:36:40.526Z,3.69
2022-11-20T15:39:10.244Z,3.62
2022-11-20T15:41:37.305Z,3.57
2022-11-20T15:44:05.555Z,3.51
2022-11-20T15:46:39.258Z,3.45
2022-11-20T15:49:06.780Z,3.38
2022-11-20T15:51:38.655Z,3.29
2022-11-20T15:54:18.458Z,3.29
2022-11-20T15:56:45.205Z,3.18
2022-11-20T15:59:11.912Z,3.22
2022-11-20T16:01:38.804Z,3.27
2022-11-20T16:04:08.849Z,3.30
2022-11-20T16:06:35.519Z,3.33
2022-11-20T16:09:02.164Z,3.30
2022-11-20T16:11:28.955Z,3.35
2022-11-20T16:14:14.136Z,3.33
2022-11-20T16:16:41.754Z,3.33
2022-11-20T16:19:14.851Z,3.32
2022-11-20T16:21:42.584Z,3.31
2022-11-20T16:24:11.908Z,3.27
2022-11-20T16:26:38.612Z,3.22
2022-11-20T16:29:06.194Z,3.20
2022-11-20T16:31:33.141Z,3.21
2022-11-20T16:34:03.901Z,3.15
2022-11-20T16:36:33.818Z,3.05
2022-11-20T16:39:02.301Z,2.98
2022-11-20T16:41:31.979Z,2.88
2022-11-20T16:44:00.707Z,2.75
2022-11-20T16:46:30.338Z,2.68
2022-11-20T16:48:58.995Z,2.60
2022-11-20T16:51:26.742Z,2.49
2022-11-20T16:53:55.944Z,2.39
2022-11-20T16:56:25.370Z,2.29
2022-11-20T16:58:54.617Z,2.20
2022-11-20T17:01:25.532Z,2.08
2022-11-20T17:03:57.358Z,2.01
2022-11-20T17:06:26.430Z,1.92
2022-11-20T17:08:54.483Z,1.83
2022-11-20T17:11:21.202Z,1.71
2022-11-20T17:13:48.490Z,1.62
2022-11-20T17:16:20.146Z,1.53
2022-11-20T17:18:47.200Z,1.46
2022-11-20T17:21:14.134Z,1.34
2022-11-20T17:23:42.567Z,1.31
2022-11-20T17:26:10.410Z,1.27
2022-11-20T17:28:38.184Z,1.24
2022-11-20T17:31:07.293Z,1.18
2022-11-20T17:33:35.574Z,1.13
2022-11-20T17:36:02.412Z,1.09
2022-11-20T17:38:29.180Z,1.02
2022-11-20T17:41:06.222Z,0.96
2022-11-20T17:43:35.887Z,0.93
2022-11-20T17:46:14.769Z,0.91
2022-11-20T17:48:44.075Z,0.84
2022-11-20T17:51:42.070Z,0.79
2022-11-20T17:54:10.515Z,0.74
2022-11-20T17:56:55.898Z,0.73
2022-11-20T17:59:22.926Z,0.71
2022-11-20T18:01:49.910Z,0.69
2022-11-20T18:04:17.287Z,0.67
2022-11-20T18:06:44.215Z,0.64
2022-11-20T18:09:10.997Z,0.54
2022-11-20T18:11:39.581Z,0.51
2022-11-20T18:14:29.171Z,0.49
2022-11-20T18:16:57.748Z,0.56
2022-11-20T18:19:31.966Z,0.53
2022-11-20T18:22:01.353Z,0.48
2022-11-20T18:24:28.387Z,0.48
2022-11-20T18:26:55.271Z,0.49
2022-11-20T18:29:22.371Z,0.48
2022-11-20T18:31:49.592Z,0.47
2022-11-20T18:34:17.801Z,0.45
2022-11-20T18:36:45.331Z,0.42
2022-11-20T18:39:12.846Z,0.36
2022-11-20T18:41:58.827Z,0.27
2022-11-20T18:44:46.496Z,0.27
2022-11-20T18:47:17.889Z,0.27
2022-11-20T18:49:54.678Z,0.26
2022-11-20T18:52:26.710Z,0.24
2022-11-20T18:54:54.422Z,0.20
2022-11-20T18:57:23.672Z,0.21
2022-11-20T18:59:50.769Z,0.23
2022-11-20T19:02:19.040Z,0.21
2022-11-20T19:04:46.059Z,0.19
2022-11-20T19:07:13.244Z,0.20
2022-11-20T19:09:44.022Z,0.20
2022-11-20T19:12:12.468Z,0.19
2022-11-20T19:14:39.265Z,0.23
2022-11-20T19:17:06.961Z,0.24
2022-11-20T19:19:34.813Z,0.22
2022-11-20T19:22:01.491Z,0.24
2022-11-20T19:24:28.753Z,0.19
2022-11-20T19:26:56.212Z,0.20
2022-11-20T19:29:24.127Z,0.25
2022-11-20T19:31:51.075Z,0.26
2022-11-20T19:34:17.817Z,0.26
2022-11-20T19:36:45.163Z,0.26
2022-11-20T19:39:12.397Z,0.29
2022-11-20T19:41:40.066Z,0.24
2022-11-20T19:44:09.712Z,0.26
2022-11-20T19:46:37.692Z,0.19
2022-11-20T19:49:05.580Z,0.19
2022-11-20T19:51:34.770Z,0.21
2022-11-20T19:54:02.468Z,0.21
2022-11-20T19:56:30.287Z,0.18
2022-11-20T19:58:57.683Z,0.17
2022-11-20T20:01:26.687Z,0.17
2022-11-20T20:03:53.963Z,0.16
2022-11-20T20:06:22.932Z,0.16
2022-11-20T20:08:57.771Z,0.21
2022-11-20T20:11:26.330Z,0.27
2022-11-20T20:13:53.591Z,0.30
2022-11-20T20:16:22.255Z,0.31
2022-11-20T20:18:48.950Z,0.30
2022-11-20T20:21:18.480Z,0.33
2022-11-20T20:23:45.282Z,0.39
2022-11-20T20:26:12.394Z,0.40
2022-11-20T20:28:39.257Z,0.41
2022-11-20T20:31:10.791Z,0.41
2022-11-20T20:33:38.673Z,0.40
2022-11-20T20:36:06.417Z,0.40
2022-11-20T20:38:33.593Z,0.38
2022-11-20T20:41:00.545Z,0.37
2022-11-20T20:43:27.444Z,0.34
2022-11-20T20:45:55.109Z,0.32
2022-11-20T20:48:24.035Z,0.28
2022-11-20T20:51:02.663Z,0.20
2022-11-20T20:53:30.775Z,0.12
2022-11-20T20:55:58.888Z,0.09
2022-11-20T20:58:26.268Z,0.10
2022-11-20T21:00:53.352Z,0.10
2022-11-20T21:03:20.328Z,0.05
2022-11-20T21:05:47.217Z,0.00
2022-11-20T21:08:22.766Z,-0.03
2022-11-20T21:10:49.923Z,-0.07
2022-11-20T21:13:16.888Z,-0.13
2022-11-20T21:15:46.554Z,-0.14
2022-11-20T21:18:13.217Z,-0.19
2022-11-20T21:20:58.702Z,-0.28
2022-11-20T21:23:25.467Z,-0.30
2022-11-20T21:25:52.272Z,-0.34
2022-11-20T21:28:18.956Z,-0.37
2022-11-20T21:30:46.047Z,-0.41
2022-11-20T21:33:12.966Z,-0.43
2022-11-20T21:35:39.782Z,-0.44
2022-11-20T21:38:06.422Z,-0.46
2022-11-20T21:40:33.139Z,-0.47
2022-11-20T21:42:59.784Z,-0.47
2022-11-20T21:45:26.471Z,-0.47
2022-11-20T21:47:55.119Z,-0.42
2022-11-20T21:50:22.282Z,-0.41
2022-11-20T21:52:48.978Z,-0.39
2022-11-20T21:55:15.722Z,-0.38
2022-11-20T21:57:42.378Z,-0.34
2022-11-20T22:00:12.352Z,-0.30
2022-11-20T22:02:40.363Z,-0.26
2022-11-20T22:05:08.027Z,-0.22
2022-11-20T22:07:35.292Z,-0.20
2022-11-20T22:10:02.123Z,-0.18
2022-11-20T22:12:28.873Z,-0.17
2022-11-20T22:14:55.622Z,-0.18
2022-11-20T22:17:42.339Z,-0.13
2022-11-20T22:20:09.901Z,-0.09
2022-11-20T22:22:36.683Z,-0.06
2022-11-20T22:25:03.473Z,-0.01
2022-11-20T22:27:30.182Z,-0.02
2022-11-20T22:29:56.843Z,-0.01
2022-11-20T22:32:23.553Z,-0.01
2022-11-20T22:34:50.234Z,-0.02
2022-11-20T22:37:17.029Z,-0.04
2022-11-20T22:39:43.665Z,-0.05
2022-11-20T22:42:10.312Z,-0.04
2022-11-20T22:44:36.946Z,-0.03
2022-11-20T22:47:07.456Z,-0.04
2022-11-20T22:49:36.840Z,-0.05
2022-11-20T22:52:03.572Z,-0.07
2022-11-20T22:54:30.256Z,-0.09
2022-11-20T22:56:56.926Z,-0.12
2022-11-20T22:59:23.589Z,-0.12
2022-11-20T23:01:50.370Z,-0.13
2022-11-20T23:04:17.057Z,-0.14
2022-11-20T23:06:43.803Z,-0.18
2022-11-20T23:09:12.719Z,-0.18
2022-11-20T23:11:39.442Z,-0.20
2022-11-20T23:14:10.817Z,-0.19
2022-11-20T23:16:37.612Z,-0.21
2022-11-20T23:19:10.647Z,-0.26
2022-11-20T23:21:39.119Z,-0.29
2022-11-20T23:24:06.341Z,-0.31
2022-11-20T23:26:35.155Z,-0.32
2022-11-20T23:29:01.948Z,-0.41
2022-11-20T23:31:30.571Z,-0.42
2022-11-20T23:33:57.620Z,-0.43
2022-11-20T23:36:24.390Z,-0.44
2022-11-20T23:38:51.118Z,-0.41
2022-11-20T23:41:18.083Z,-0.43
2022-11-20T23:43:44.753Z,-0.46
2022-11-20T23:46:15.209Z,-0.47
2022-11-20T23:48:44.814Z,-0.51
2022-11-20T23:51:11.504Z,-0.47
2022-11-20T23:53:38.206Z,-0.45
2022-11-20T23:56:05.917Z,-0.44
2022-11-20T23:58:35.069Z,-0.45
